createdAt,value
2022-09-22T00:01:30.374Z,99404.31
2022-09-22T00:04:00.254Z,99398.09
2022-09-22T00:06:29.641Z,99392.19
2022-09-22T00:09:00.606Z,99393.38
2022-09-22T00:11:31.042Z,99393.81
2022-09-22T00:14:02.235Z,99393.63
2022-09-22T00:16:33.956Z,99399.34
2022-09-22T00:19:01.785Z,99397.25
2022-09-22T00:21:30.997Z,99401.00
2022-09-22T00:24:01.523Z,99395.25
2022-09-22T00:26:29.252Z,99393.25
2022-09-22T00:28:57.306Z,99391.47
2022-09-22T00:31:26.954Z,99391.75
2022-09-22T00:33:55.377Z,99379.78
2022-09-22T00:36:26.604Z,99380.09
2022-09-22T00:38:56.360Z,99382.00
2022-09-22T00:41:26.375Z,99373.03
2022-09-22T00:44:33.958Z,99371.72
2022-09-22T00:47:09.294Z,99377.66
2022-09-22T00:49:45.153Z,99374.56
2022-09-22T00:52:17.012Z,99374.34
2022-09-22T00:54:44.737Z,99371.78
2022-09-22T00:57:16.271Z,99361.13
2022-09-22T00:59:46.302Z,99369.50
2022-09-22T01:02:15.952Z,99366.56
2022-09-22T01:04:43.694Z,99370.41
2022-09-22T01:07:13.838Z,99370.34
2022-09-22T01:09:41.736Z,99372.28
2022-09-22T01:12:09.777Z,99371.03
2022-09-22T01:15:04.955Z,99383.75
2022-09-22T01:17:42.046Z,99388.38
2022-09-22T01:20:41.812Z,99383.28
2022-09-22T01:23:43.390Z,99376.72
2022-09-22T01:26:32.206Z,99377.16
2022-09-22T01:29:19.391Z,99380.03
2022-09-22T01:31:55.427Z,99379.00
2022-09-22T01:34:31.373Z,99374.25
2022-09-22T01:37:06.814Z,99375.69
2022-09-22T01:39:40.267Z,99384.81
2022-09-22T01:42:12.573Z,99371.94
2022-09-22T01:44:49.154Z,99375.31
2022-09-22T01:47:22.696Z,99374.50
2022-09-22T01:49:54.196Z,99368.63
2022-09-22T01:52:27.161Z,99371.81
2022-09-22T01:54:58.995Z,99371.00
2022-09-22T01:57:38.004Z,99379.84
2022-09-22T02:00:09.671Z,99366.59
2022-09-22T02:02:48.565Z,99367.78
2022-09-22T02:05:21.854Z,99364.22
2022-09-22T02:07:53.275Z,99367.94
2022-09-22T02:10:26.846Z,99364.88
2022-09-22T02:12:55.425Z,99366.44
2022-09-22T02:15:41.616Z,99364.56
2022-09-22T02:18:16.036Z,99358.75
2022-09-22T02:20:43.780Z,99364.03
2022-09-22T02:23:11.550Z,99362.88
2022-09-22T02:25:41.588Z,99358.22
2022-09-22T02:28:11.303Z,99359.69
2022-09-22T02:30:39.407Z,99358.06
2022-09-22T02:33:07.696Z,99355.38
2022-09-22T02:35:40.361Z,99358.53
2022-09-22T02:38:14.282Z,99355.13
2022-09-22T02:40:47.471Z,99349.44
2022-09-22T02:43:23.095Z,99357.25
2022-09-22T02:45:58.482Z,99355.97
2022-09-22T02:48:29.402Z,99351.75
2022-09-22T02:50:58.815Z,99352.41
2022-09-22T02:53:26.510Z,99344.50
2022-09-22T02:55:54.234Z,99353.22
2022-09-22T02:58:21.910Z,99356.19
2022-09-22T03:00:49.562Z,99353.88
2022-09-22T03:03:17.250Z,99349.41
2022-09-22T03:05:44.960Z,99353.38
2022-09-22T03:08:13.990Z,99351.22
2022-09-22T03:10:41.722Z,99345.63
2022-09-22T03:13:16.317Z,99339.84
2022-09-22T03:15:45.135Z,99343.22
2022-09-22T03:18:13.216Z,99346.03
2022-09-22T03:20:40.922Z,99350.69
2022-09-22T03:23:08.921Z,99347.31
2022-09-22T03:25:38.001Z,99348.41
2022-09-22T03:28:08.240Z,99341.88
2022-09-22T03:30:37.167Z,99349.25
2022-09-22T03:33:05.038Z,99347.22
2022-09-22T03:35:32.806Z,99337.41
2022-09-22T03:38:00.530Z,99342.19
2022-09-22T03:40:28.411Z,99340.50
2022-09-22T03:42:57.537Z,99338.19
2022-09-22T03:45:25.447Z,99334.28
2022-09-22T03:47:54.563Z,99340.16
2022-09-22T03:50:22.549Z,99337.72
2022-09-22T03:52:50.215Z,99343.16
2022-09-22T03:55:18.422Z,99331.22
2022-09-22T03:57:46.098Z,99335.00
2022-09-22T04:00:16.996Z,99339.50
2022-09-22T04:02:44.840Z,99333.09
2022-09-22T04:05:14.583Z,99328.78
2022-09-22T04:07:44.997Z,99327.81
2022-09-22T04:10:12.790Z,99330.97
2022-09-22T04:12:42.900Z,99321.69
2022-09-22T04:15:10.904Z,99324.63
2022-09-22T04:17:39.946Z,99326.72
2022-09-22T04:20:11.273Z,99329.59
2022-09-22T04:22:39.634Z,99327.94
2022-09-22T04:25:08.971Z,99332.91
2022-09-22T04:27:38.757Z,99328.22
2022-09-22T04:30:07.627Z,99333.81
2022-09-22T04:32:35.308Z,99334.25
2022-09-22T04:35:04.472Z,99335.31
2022-09-22T04:37:32.155Z,99334.63
2022-09-22T04:40:00.095Z,99346.34
2022-09-22T04:42:29.878Z,99337.41
2022-09-22T04:45:01.842Z,99329.53
2022-09-22T04:47:30.085Z,99330.00
2022-09-22T04:49:57.998Z,99329.84
2022-09-22T04:52:27.472Z,99330.91
2022-09-22T04:54:55.131Z,99322.09
2022-09-22T04:57:22.799Z,99326.03
2022-09-22T04:59:50.478Z,99332.41
2022-09-22T05:02:19.066Z,99330.59
2022-09-22T05:04:49.110Z,99338.78
2022-09-22T05:07:16.875Z,99337.25
2022-09-22T05:09:46.093Z,99334.25
2022-09-22T05:12:13.805Z,99339.56
2022-09-22T05:14:43.566Z,99347.91
2022-09-22T05:17:11.275Z,99343.81
2022-09-22T05:19:38.996Z,99348.75
2022-09-22T05:22:06.696Z,99345.75
2022-09-22T05:24:34.379Z,99341.63
2022-09-22T05:27:04.725Z,99353.63
2022-09-22T05:29:32.531Z,99349.66
2022-09-22T05:32:00.600Z,99365.69
2022-09-22T05:34:28.401Z,99357.16
2022-09-22T05:36:56.089Z,99355.19
2022-09-22T05:39:23.847Z,99352.97
2022-09-22T05:41:53.673Z,99360.84
2022-09-22T05:44:23.574Z,99359.84
2022-09-22T05:46:51.289Z,99355.75
2022-09-22T05:49:18.980Z,99353.19
2022-09-22T05:51:47.086Z,99353.97
2022-09-22T05:54:16.586Z,99360.75
2022-09-22T05:56:49.199Z,99353.84
2022-09-22T05:59:16.944Z,99352.59
2022-09-22T06:01:46.148Z,99359.19
2022-09-22T06:04:14.070Z,99353.97
2022-09-22T06:06:42.395Z,99354.94
2022-09-22T06:09:10.615Z,99362.31
2022-09-22T06:11:38.880Z,99356.38
2022-09-22T06:14:06.978Z,99360.22
2022-09-22T06:16:35.460Z,99356.16
2022-09-22T06:19:05.467Z,99359.78
2022-09-22T06:21:33.679Z,99361.91
2022-09-22T06:24:02.206Z,99357.75
2022-09-22T06:26:30.199Z,99358.91
2022-09-22T06:28:58.561Z,99353.97
2022-09-22T06:31:26.702Z,99357.84
2022-09-22T06:33:54.811Z,99353.91
2022-09-22T06:36:30.391Z,99351.75
2022-09-22T06:38:59.383Z,99353.00
2022-09-22T06:41:27.842Z,99355.19
2022-09-22T06:44:03.215Z,99342.56
2022-09-22T06:46:34.079Z,99340.94
2022-09-22T06:49:03.359Z,99335.81
2022-09-22T06:51:34.244Z,99338.69
2022-09-22T06:54:04.176Z,99337.44
2022-09-22T06:56:37.086Z,99337.59
2022-09-22T06:59:12.942Z,99345.25
2022-09-22T07:01:43.105Z,99341.50
2022-09-22T07:04:12.329Z,99346.03
2022-09-22T07:06:42.769Z,99333.22
2022-09-22T07:09:12.501Z,99340.13
2022-09-22T07:11:40.745Z,99341.13
2022-09-22T07:14:11.845Z,99333.66
2022-09-22T07:16:41.000Z,99333.47
2022-09-22T07:19:09.229Z,99341.00
2022-09-22T07:21:37.956Z,99333.09
2022-09-22T07:24:09.216Z,99336.47
2022-09-22T07:26:39.788Z,99335.44
2022-09-22T07:29:11.839Z,99333.41
2022-09-22T07:31:41.511Z,99331.81
2022-09-22T07:34:10.270Z,99333.38
2022-09-22T07:36:39.141Z,99335.81
2022-09-22T07:39:12.243Z,99337.22
2022-09-22T07:41:46.783Z,99333.09
2022-09-22T07:44:33.714Z,99338.81
2022-09-22T07:47:03.119Z,99338.56
2022-09-22T07:49:31.483Z,99326.81
2022-09-22T07:51:59.601Z,99326.81
2022-09-22T07:54:30.761Z,99325.50
2022-09-22T07:56:59.342Z,99331.75
2022-09-22T07:59:27.833Z,99331.50
2022-09-22T08:01:55.843Z,99330.06
2022-09-22T08:04:26.324Z,99321.91
2022-09-22T08:06:56.360Z,99328.06
2022-09-22T08:09:25.425Z,99326.91
2022-09-22T08:11:55.145Z,99310.09
2022-09-22T08:14:23.995Z,99307.91
2022-09-22T08:16:54.021Z,99307.63
2022-09-22T08:19:25.039Z,99311.16
2022-09-22T08:21:55.062Z,99302.81
2022-09-22T08:24:24.051Z,99311.41
2022-09-22T08:26:56.284Z,99300.81
2022-09-22T08:29:25.328Z,99303.53
2022-09-22T08:31:54.273Z,99305.63
2022-09-22T08:34:23.171Z,99305.06
2022-09-22T08:36:53.695Z,99293.38
2022-09-22T08:39:21.523Z,99301.03
2022-09-22T08:42:08.451Z,99295.59
2022-09-22T08:44:42.098Z,99296.16
2022-09-22T08:47:37.828Z,99292.13
2022-09-22T08:50:36.334Z,99286.25
2022-09-22T08:53:10.013Z,99288.84
2022-09-22T08:55:43.019Z,99290.09
2022-09-22T08:58:24.531Z,99289.53
2022-09-22T09:01:01.501Z,99286.91
2022-09-22T09:03:39.541Z,99282.22
2022-09-22T09:06:14.188Z,99287.06
2022-09-22T09:09:12.494Z,99282.88
2022-09-22T09:11:58.070Z,99283.69
2022-09-22T09:14:50.499Z,99283.47
2022-09-22T09:17:22.549Z,99281.72
2022-09-22T09:19:55.933Z,99278.22
2022-09-22T09:22:28.222Z,99279.56
2022-09-22T09:27:54.128Z,99281.53
2022-09-22T09:30:23.863Z,99270.13
2022-09-22T09:32:57.618Z,99263.59
2022-09-22T09:35:41.255Z,99267.38
2022-09-22T09:38:14.695Z,99269.75
2022-09-22T09:40:43.120Z,99271.38
2022-09-22T09:43:12.068Z,99260.06
2022-09-22T09:45:54.244Z,99274.41
2022-09-22T09:48:32.254Z,99256.97
2022-09-22T09:51:05.342Z,99257.34
2022-09-22T09:53:41.086Z,99271.19
2022-09-22T09:56:22.378Z,99266.94
2022-09-22T09:59:15.370Z,99262.28
2022-09-22T10:01:48.169Z,99256.56
2022-09-22T10:04:22.517Z,99263.00
2022-09-22T10:06:50.746Z,99262.03
2022-09-22T10:09:27.820Z,99259.06
2022-09-22T10:12:00.700Z,99253.81
2022-09-22T10:14:32.532Z,99250.03
2022-09-22T10:17:03.953Z,99247.66
2022-09-22T10:19:34.644Z,99246.31
2022-09-22T10:22:25.293Z,99234.56
2022-09-22T10:24:59.254Z,99244.22
2022-09-22T10:27:28.862Z,99242.88
2022-09-22T10:30:23.792Z,99236.44
2022-09-22T10:33:11.739Z,99231.91
2022-09-22T10:35:41.004Z,99229.66
2022-09-22T10:38:16.507Z,99228.19
2022-09-22T10:40:48.462Z,99229.03
2022-09-22T10:43:37.021Z,99222.94
2022-09-22T10:46:40.534Z,99218.84
2022-09-22T10:49:14.447Z,99230.78
2022-09-22T10:51:59.700Z,99211.06
2022-09-22T10:54:48.238Z,99209.00
2022-09-22T10:57:27.032Z,99209.69
2022-09-22T11:00:12.048Z,99211.03
2022-09-22T11:03:09.717Z,99209.44
2022-09-22T11:06:09.005Z,99213.88
2022-09-22T11:09:03.026Z,99213.72
2022-09-22T11:11:55.427Z,99218.03
2022-09-22T11:14:37.346Z,99203.63
2022-09-22T11:17:18.384Z,99204.13
2022-09-22T11:20:23.194Z,99196.56
2022-09-22T11:23:08.884Z,99203.31
2022-09-22T11:25:50.566Z,99197.13
2022-09-22T11:28:34.959Z,99193.03
2022-09-22T11:31:05.981Z,99188.47
2022-09-22T11:34:03.686Z,99185.22
2022-09-22T11:36:56.237Z,99186.09
2022-09-22T11:39:46.245Z,99178.09
2022-09-22T11:42:21.469Z,99172.75
2022-09-22T11:45:01.968Z,99169.16
2022-09-22T11:47:43.874Z,99158.63
2022-09-22T11:50:40.182Z,99165.25
2022-09-22T11:53:20.904Z,99156.94
2022-09-22T11:56:04.946Z,99154.84
2022-09-22T11:58:34.545Z,99157.94
2022-09-22T12:01:12.304Z,99149.38
2022-09-22T12:03:46.113Z,99157.94
2022-09-22T12:06:18.748Z,99152.53
2022-09-22T12:11:28.656Z,99151.38
2022-09-22T12:13:58.923Z,99150.53
2022-09-22T12:16:41.525Z,99145.06
2022-09-22T12:19:22.337Z,99149.25
2022-09-22T12:21:59.663Z,99137.97
2022-09-22T12:24:27.452Z,99133.72
2022-09-22T12:26:56.738Z,99129.91
2022-09-22T12:29:28.441Z,99126.84
2022-09-22T12:31:58.994Z,99131.97
2022-09-22T12:34:30.544Z,99135.97
2022-09-22T12:37:01.628Z,99128.63
2022-09-22T12:39:32.286Z,99122.41
2022-09-22T12:42:04.183Z,99116.09
2022-09-22T12:44:36.140Z,99115.63
2022-09-22T12:47:07.139Z,99113.19
2022-09-22T12:49:35.254Z,99117.88
2022-09-22T12:52:03.195Z,99121.34
2022-09-22T12:54:48.972Z,99110.50
2022-09-22T12:57:31.371Z,99112.25
2022-09-22T13:00:13.662Z,99112.78
2022-09-22T13:02:43.353Z,99113.88
2022-09-22T13:05:36.747Z,99110.75
2022-09-22T13:08:04.778Z,99098.78
2022-09-22T13:11:00.034Z,99108.66
2022-09-22T13:13:40.596Z,99103.72
2022-09-22T13:16:37.383Z,99097.13
2022-09-22T13:19:10.874Z,99089.00
2022-09-22T13:21:41.543Z,99093.22
2022-09-22T13:24:19.526Z,99089.88
2022-09-22T13:26:47.303Z,99093.78
2022-09-22T13:29:18.402Z,99084.66
2022-09-22T13:31:47.732Z,99087.50
2022-09-22T13:34:20.351Z,99088.22
2022-09-22T13:36:48.820Z,99085.97
2022-09-22T13:39:20.544Z,99083.19
2022-09-22T13:41:51.428Z,99074.94
2022-09-22T13:44:25.026Z,99080.50
2022-09-22T13:46:53.839Z,99082.34
2022-09-22T13:49:30.845Z,99075.19
2022-09-22T13:52:02.315Z,99079.19
2022-09-22T13:54:33.649Z,99071.81
2022-09-22T13:57:04.522Z,99068.28
2022-09-22T13:59:40.534Z,99061.75
2022-09-22T14:02:12.675Z,99066.16
2022-09-22T14:05:02.732Z,99058.72
2022-09-22T14:07:38.343Z,99053.19
2022-09-22T14:10:14.920Z,99054.19
2022-09-22T14:12:42.748Z,99055.66
2022-09-22T14:15:43.417Z,99061.00
2022-09-22T14:18:21.127Z,99057.50
2022-09-22T14:20:49.450Z,99051.81
2022-09-22T14:23:23.816Z,99043.06
2022-09-22T14:25:51.601Z,99043.41
2022-09-22T14:28:23.419Z,99050.47
2022-09-22T14:30:52.906Z,99042.00
2022-09-22T14:33:25.614Z,99042.00
2022-09-22T14:36:01.751Z,99040.19
2022-09-22T14:38:34.253Z,99041.56
2022-09-22T14:41:02.820Z,99038.56
2022-09-22T14:43:35.568Z,99043.38
2022-09-22T14:46:21.854Z,99034.66
2022-09-22T14:48:49.673Z,99032.63
2022-09-22T14:51:20.652Z,99032.16
2022-09-22T14:53:51.546Z,99024.25
2022-09-22T14:56:27.321Z,99027.31
2022-09-22T14:58:57.845Z,99031.00
2022-09-22T15:01:47.604Z,99020.41
2022-09-22T15:04:18.757Z,99020.25
2022-09-22T15:06:48.191Z,99018.59
2022-09-22T15:09:24.716Z,99010.81
2022-09-22T15:11:54.712Z,99017.03
2022-09-22T15:14:42.408Z,99016.56
2022-09-22T15:17:57.299Z,99000.13
2022-09-22T15:20:29.003Z,98994.41
2022-09-22T15:22:58.777Z,99000.50
2022-09-22T15:25:26.771Z,99002.72
2022-09-22T15:27:54.739Z,99000.44
2022-09-22T15:30:23.029Z,99002.13
2022-09-22T15:32:52.730Z,99000.94
2022-09-22T15:35:20.982Z,99000.69
2022-09-22T15:37:50.632Z,98992.31
2022-09-22T15:40:21.261Z,98997.16
2022-09-22T15:43:09.024Z,99002.97
2022-09-22T15:45:38.993Z,98996.91
2022-09-22T15:48:10.057Z,98994.19
2022-09-22T15:50:37.759Z,98994.59
2022-09-22T15:53:05.453Z,98991.38
2022-09-22T15:55:34.343Z,98980.16
2022-09-22T15:58:07.346Z,98989.81
2022-09-22T16:00:36.478Z,98989.22
2022-09-22T16:03:15.438Z,98983.66
2022-09-22T16:05:44.810Z,98984.75
2022-09-22T16:08:16.507Z,98988.50
2022-09-22T16:10:45.322Z,98986.81
2022-09-22T16:13:14.057Z,98991.69
2022-09-22T16:15:41.780Z,98983.66
2022-09-22T16:18:10.852Z,98986.53
2022-09-22T16:20:40.720Z,98984.81
2022-09-22T16:23:08.439Z,98976.03
2022-09-22T16:25:36.466Z,98985.34
2022-09-22T16:28:04.744Z,98983.75
2022-09-22T16:30:32.519Z,98985.88
2022-09-22T16:33:00.775Z,98978.28
2022-09-22T16:35:30.089Z,98978.38
2022-09-22T16:38:00.145Z,98992.34
2022-09-22T16:40:30.688Z,98984.16
2022-09-22T16:42:58.514Z,98984.72
2022-09-22T16:45:43.854Z,98988.75
2022-09-22T16:48:14.282Z,98991.69
2022-09-22T16:50:43.380Z,98993.06
2022-09-22T16:53:11.091Z,98995.44
2022-09-22T16:55:38.849Z,98989.56
2022-09-22T16:58:13.092Z,98992.94
2022-09-22T17:00:40.860Z,98989.94
2022-09-22T17:03:11.166Z,98998.22
2022-09-22T17:05:39.434Z,98993.03
2022-09-22T17:08:09.150Z,98993.44
2022-09-22T17:10:36.908Z,99000.63
2022-09-22T17:13:05.178Z,99003.19
2022-09-22T17:15:35.664Z,98997.97
2022-09-22T17:18:04.632Z,98996.06
2022-09-22T17:20:34.930Z,98992.38
2022-09-22T17:23:02.675Z,98995.22
2022-09-22T17:25:31.735Z,98996.13
2022-09-22T17:27:59.489Z,98988.78
2022-09-22T17:30:28.298Z,98993.28
2022-09-22T17:32:56.028Z,98986.94
2022-09-22T17:35:23.746Z,98992.75
2022-09-22T17:37:53.413Z,98988.34
2022-09-22T17:40:21.203Z,98992.50
2022-09-22T17:42:50.296Z,98998.06
2022-09-22T17:45:20.134Z,98988.19
2022-09-22T17:48:04.976Z,98992.25
2022-09-22T17:50:50.415Z,99000.28
2022-09-22T17:53:35.616Z,99003.06
2022-09-22T17:56:05.138Z,99000.50
2022-09-22T17:58:34.235Z,98998.53
2022-09-22T18:01:01.967Z,99003.06
2022-09-22T18:03:29.673Z,99010.09
2022-09-22T18:05:58.261Z,99006.19
2022-09-22T18:08:26.160Z,99006.47
2022-09-22T18:10:54.479Z,99008.19
2022-09-22T18:13:22.241Z,99009.72
2022-09-22T18:15:52.258Z,99014.03
2022-09-22T18:18:20.083Z,99006.44
2022-09-22T18:20:48.335Z,99009.84
2022-09-22T18:23:16.647Z,99008.44
2022-09-22T18:25:46.433Z,99002.91
2022-09-22T18:28:14.142Z,99007.69
2022-09-22T18:30:41.950Z,99009.47
2022-09-22T18:33:12.898Z,99011.56
2022-09-22T18:35:44.282Z,99021.41
2022-09-22T18:38:15.987Z,99021.13
2022-09-22T18:40:43.884Z,99018.44
2022-09-22T18:43:11.600Z,99016.91
2022-09-22T18:45:41.510Z,99019.91
2022-09-22T18:48:09.200Z,99022.53
2022-09-22T18:50:40.936Z,99017.47
2022-09-22T18:53:10.826Z,99026.03
2022-09-22T18:55:38.929Z,99027.00
2022-09-22T18:58:06.603Z,99035.31
2022-09-22T19:00:34.294Z,99021.06
2022-09-22T19:03:02.093Z,99031.19
2022-09-22T19:05:29.848Z,99028.25
2022-09-22T19:08:00.379Z,99031.44
2022-09-22T19:10:28.130Z,99032.28
2022-09-22T19:12:55.846Z,99037.25
2022-09-22T19:15:25.239Z,99026.13
2022-09-22T19:17:52.951Z,99036.66
2022-09-22T19:20:23.798Z,99028.41
2022-09-22T19:22:52.237Z,99039.63
2022-09-22T19:25:22.447Z,99034.31
2022-09-22T19:27:50.321Z,99037.78
2022-09-22T19:30:22.397Z,99035.50
2022-09-22T19:32:51.580Z,99032.69
2022-09-22T19:35:20.273Z,99034.75
2022-09-22T19:37:51.623Z,99039.63
2022-09-22T19:40:24.374Z,99040.19
2022-09-22T19:42:52.950Z,99036.25
2022-09-22T19:45:21.129Z,99036.00
2022-09-22T19:47:48.891Z,99039.47
2022-09-22T19:50:16.724Z,99043.00
2022-09-22T19:52:44.420Z,99038.78
2022-09-22T19:55:12.405Z,99035.91
2022-09-22T19:57:42.055Z,99041.38
2022-09-22T20:00:12.309Z,99040.56
2022-09-22T20:02:40.074Z,99035.47
2022-09-22T20:05:21.597Z,99035.63
2022-09-22T20:07:50.539Z,99037.94
2022-09-22T20:10:22.402Z,99028.69
2022-09-22T20:12:52.504Z,99037.47
2022-09-22T20:15:20.996Z,99039.66
2022-09-22T20:17:48.690Z,99023.97
2022-09-22T20:20:19.637Z,99031.38
2022-09-22T20:22:48.638Z,99026.31
2022-09-22T20:25:25.040Z,99033.78
2022-09-22T20:27:54.691Z,99027.97
2022-09-22T20:30:22.632Z,99028.66
2022-09-22T20:32:51.478Z,99018.97
2022-09-22T20:35:21.721Z,99027.28
2022-09-22T20:37:49.594Z,99021.41
2022-09-22T20:40:22.963Z,99021.81
2022-09-22T20:42:53.064Z,99019.50
2022-09-22T20:45:24.775Z,99017.28
2022-09-22T20:47:52.645Z,99023.19
2022-09-22T20:50:21.122Z,99023.31
2022-09-22T20:52:48.888Z,99021.13
2022-09-22T20:55:17.013Z,99021.66
2022-09-22T20:57:46.832Z,99013.09
2022-09-22T21:00:16.245Z,99016.56
2022-09-22T21:02:45.448Z,99017.47
2022-09-22T21:05:13.145Z,99018.50
2022-09-22T21:07:40.923Z,99022.81
2022-09-22T21:10:41.195Z,99022.09
2022-09-22T21:13:09.479Z,99024.78
2022-09-22T21:15:37.224Z,99020.03
2022-09-22T21:18:06.400Z,99022.34
2022-09-22T21:20:36.438Z,99027.41
2022-09-22T21:23:04.103Z,99014.91
2022-09-22T21:25:31.853Z,99015.22
2022-09-22T21:28:02.147Z,99025.91
2022-09-22T21:30:29.890Z,99018.31
2022-09-22T21:32:57.559Z,99016.09
2022-09-22T21:35:26.581Z,99018.66
2022-09-22T21:37:56.922Z,99013.88
2022-09-22T21:40:24.919Z,99018.97
2022-09-22T21:42:53.076Z,99019.31
2022-09-22T21:45:21.045Z,99020.94
2022-09-22T21:47:50.964Z,99015.13
2022-09-22T21:50:18.654Z,99020.75
2022-09-22T21:52:47.891Z,99011.66
2022-09-22T21:55:15.816Z,99013.25
2022-09-22T21:57:43.525Z,99008.78
2022-09-22T22:00:12.244Z,99004.19
2022-09-22T22:02:54.095Z,98998.63
2022-09-22T22:05:21.849Z,99007.13
2022-09-22T22:07:50.921Z,99007.28
2022-09-22T22:10:19.075Z,99000.53
2022-09-22T22:12:49.190Z,98995.59
2022-09-22T22:15:17.124Z,98993.66
2022-09-22T22:17:44.822Z,98995.81
2022-09-22T22:20:12.549Z,98993.38
2022-09-22T22:22:40.234Z,98991.78
2022-09-22T22:25:17.791Z,98989.22
2022-09-22T22:27:47.528Z,98999.81
2022-09-22T22:30:15.443Z,98995.28
2022-09-22T22:32:43.234Z,98989.22
2022-09-22T22:35:13.047Z,98984.50
2022-09-22T22:37:40.759Z,98987.03
2022-09-22T22:40:10.555Z,98989.78
2022-09-22T22:42:38.299Z,98983.22
2022-09-22T22:45:06.778Z,98991.13
2022-09-22T22:47:36.781Z,98982.44
2022-09-22T22:50:06.315Z,98986.06
2022-09-22T22:52:34.042Z,98981.97
2022-09-22T22:55:01.785Z,98980.16
2022-09-22T22:57:30.919Z,98973.63
2022-09-22T22:59:58.604Z,98978.47
2022-09-22T23:02:26.298Z,98975.78
2022-09-22T23:04:54.236Z,98973.41
2022-09-22T23:07:21.984Z,98971.25
2022-09-22T23:10:05.919Z,98956.84
2022-09-22T23:12:40.259Z,98960.47
2022-09-22T23:15:10.463Z,98964.03
2022-09-22T23:17:40.658Z,98966.59
2022-09-22T23:20:09.591Z,98961.22
2022-09-22T23:22:37.327Z,98962.16
2022-09-22T23:25:07.915Z,98966.59
2022-09-22T23:27:36.987Z,98964.47
2022-09-22T23:30:05.295Z,98956.28
2022-09-22T23:32:33.056Z,98964.69
2022-09-22T23:35:00.777Z,98961.34
2022-09-22T23:37:28.583Z,98964.28
2022-09-22T23:39:56.319Z,98953.00
2022-09-22T23:42:26.079Z,98949.94
2022-09-22T23:44:55.089Z,98949.50
2022-09-22T23:47:22.786Z,98958.78
2022-09-22T23:49:50.452Z,98953.28
2022-09-22T23:52:18.153Z,98961.13
2022-09-22T23:54:47.928Z,98952.03
2022-09-22T23:57:15.609Z,98949.13
2022-09-22T23:59:43.380Z,98948.47
